createdAt,value
2023-04-21T00:00:56.021Z,16.70
2023-04-21T00:03:24.282Z,16.80
2023-04-21T00:05:52.123Z,16.00
2023-04-21T00:08:19.980Z,19.17
2023-04-21T00:10:47.185Z,17.90
2023-04-21T00:13:14.597Z,19.77
2023-04-21T00:15:41.796Z,19.87
2023-04-21T00:18:09.853Z,19.20
2023-04-21T00:20:37.052Z,20.77
2023-04-21T00:23:04.096Z,18.23
2023-04-21T00:25:31.024Z,20.33
2023-04-21T00:27:57.965Z,20.97
2023-04-21T00:30:24.887Z,20.77
2023-04-21T00:32:52.104Z,19.60
2023-04-21T00:35:19.361Z,19.50
2023-04-21T00:37:46.271Z,21.10
2023-04-21T00:40:14.006Z,21.10
2023-04-21T00:42:40.832Z,21.27
2023-04-21T00:45:08.800Z,20.33
2023-04-21T00:47:35.819Z,21.93
2023-04-21T00:50:04.107Z,21.90
2023-04-21T00:52:32.051Z,20.13
2023-04-21T00:55:00.731Z,20.97
2023-04-21T00:57:29.391Z,20.40
2023-04-21T00:59:56.180Z,21.20
2023-04-21T01:02:23.614Z,21.20
2023-04-21T01:04:50.631Z,19.80
2023-04-21T01:07:17.639Z,21.30
2023-04-21T01:09:44.451Z,22.30
2023-04-21T01:12:12.039Z,20.83
2023-04-21T01:14:41.015Z,20.20
2023-04-21T01:17:09.110Z,22.50
2023-04-21T01:19:42.562Z,22.40
2023-04-21T01:22:11.780Z,22.67
2023-04-21T01:24:40.820Z,21.50
2023-04-21T01:27:12.210Z,22.37
2023-04-21T01:29:40.752Z,20.80
2023-04-21T01:32:10.712Z,22.70
2023-04-21T01:34:40.017Z,22.10
2023-04-21T01:37:15.176Z,22.10
2023-04-21T01:39:45.042Z,22.80
2023-04-21T01:42:12.442Z,21.87
2023-04-21T01:44:40.051Z,22.10
2023-04-21T01:47:08.986Z,23.73
2023-04-21T01:49:35.917Z,22.07
2023-04-21T01:52:03.006Z,22.30
2023-04-21T01:54:30.204Z,22.70
2023-04-21T01:56:58.291Z,23.87
2023-04-21T01:59:25.460Z,22.37
2023-04-21T02:01:52.379Z,23.00
2023-04-21T02:04:19.345Z,23.03
2023-04-21T02:06:46.550Z,24.00
2023-04-21T02:09:13.440Z,22.87
2023-04-21T02:11:40.480Z,25.27
2023-04-21T02:14:07.313Z,25.17
2023-04-21T02:16:34.384Z,24.03
2023-04-21T02:19:01.324Z,24.50
2023-04-21T02:21:28.388Z,26.10
2023-04-21T02:23:55.762Z,22.80
2023-04-21T02:26:22.598Z,26.03
2023-04-21T02:28:50.360Z,26.13
2023-04-21T02:31:18.759Z,26.53
2023-04-21T02:33:46.068Z,25.93
2023-04-21T02:36:13.296Z,27.30
2023-04-21T02:38:40.340Z,25.80
2023-04-21T02:41:07.118Z,27.37
2023-04-21T02:43:34.506Z,24.27
2023-04-21T02:46:07.484Z,27.20
2023-04-21T02:48:36.033Z,27.47
2023-04-21T02:51:05.007Z,26.60
2023-04-21T02:53:32.036Z,28.30
2023-04-21T02:55:59.291Z,26.90
2023-04-21T02:58:26.209Z,26.60
2023-04-21T03:00:53.295Z,27.93
2023-04-21T03:03:20.273Z,26.90
2023-04-21T03:05:55.830Z,28.37
2023-04-21T03:08:22.675Z,27.47
2023-04-21T03:10:49.474Z,28.40
2023-04-21T03:13:17.544Z,29.57
2023-04-21T03:15:45.040Z,28.10
2023-04-21T03:18:12.709Z,29.50
2023-04-21T03:20:40.227Z,27.60
2023-04-21T03:23:07.263Z,28.73
2023-04-21T03:25:34.642Z,29.73
2023-04-21T03:28:04.749Z,36.53
2023-04-21T03:30:31.694Z,41.10
2023-04-21T03:32:59.160Z,35.73
2023-04-21T03:35:26.150Z,29.50
2023-04-21T03:37:53.554Z,31.67
2023-04-21T03:40:20.475Z,27.87
2023-04-21T03:42:47.321Z,29.43
2023-04-21T03:45:14.294Z,28.50
2023-04-21T03:47:41.527Z,28.33
2023-04-21T03:50:08.684Z,29.20
2023-04-21T03:52:35.577Z,27.40
2023-04-21T03:55:02.590Z,28.23
2023-04-21T03:57:29.803Z,28.23
2023-04-21T03:59:57.024Z,27.57
2023-04-21T04:02:24.033Z,28.30
2023-04-21T04:04:51.050Z,31.03
2023-04-21T04:07:17.981Z,29.50
2023-04-21T04:09:44.973Z,29.43
2023-04-21T04:12:11.991Z,28.53
2023-04-21T04:14:39.724Z,32.23
2023-04-21T04:17:06.572Z,27.50
2023-04-21T04:19:34.088Z,29.53
2023-04-21T04:22:01.360Z,30.10
2023-04-21T04:24:28.637Z,31.20
2023-04-21T04:26:55.525Z,30.07
2023-04-21T04:29:22.822Z,27.47
2023-04-21T04:31:50.976Z,27.83
2023-04-21T04:34:18.732Z,29.90
2023-04-21T04:36:46.449Z,29.67
2023-04-21T04:39:13.908Z,29.57
2023-04-21T04:41:41.719Z,28.20
2023-04-21T04:44:08.922Z,29.60
2023-04-21T04:46:35.875Z,29.00
2023-04-21T04:49:03.526Z,30.47
2023-04-21T04:51:30.333Z,29.67
2023-04-21T04:53:57.447Z,28.27
2023-04-21T04:56:24.285Z,31.53
2023-04-21T04:58:51.090Z,30.03
2023-04-21T05:01:18.541Z,29.77
2023-04-21T05:03:46.663Z,29.50
2023-04-21T05:06:14.410Z,28.20
2023-04-21T05:08:41.676Z,27.27
2023-04-21T05:11:09.599Z,28.83
2023-04-21T05:13:39.636Z,30.13
2023-04-21T05:16:08.591Z,30.50
2023-04-21T05:18:35.752Z,30.07
2023-04-21T05:21:02.637Z,30.50
2023-04-21T05:23:29.494Z,28.40
2023-04-21T05:25:56.305Z,28.67
2023-04-21T05:28:23.520Z,30.53
2023-04-21T05:30:50.361Z,34.53
2023-04-21T05:33:20.355Z,33.73
2023-04-21T05:35:47.234Z,32.87
2023-04-21T05:38:14.196Z,30.03
2023-04-21T05:40:41.679Z,29.97
2023-04-21T05:43:08.842Z,28.97
2023-04-21T05:45:41.147Z,33.50
2023-04-21T05:48:08.167Z,32.20
2023-04-21T05:50:35.821Z,29.33
2023-04-21T05:53:02.694Z,31.10
2023-04-21T05:55:29.537Z,30.07
2023-04-21T05:57:56.522Z,29.53
2023-04-21T06:00:23.376Z,29.80
2023-04-21T06:02:50.328Z,28.10
2023-04-21T06:05:17.499Z,28.77
2023-04-21T06:07:44.780Z,28.50
2023-04-21T06:10:13.500Z,28.57
2023-04-21T06:12:40.461Z,30.83
2023-04-21T06:15:07.751Z,28.83
2023-04-21T06:17:34.671Z,30.87
2023-04-21T06:20:01.866Z,28.63
2023-04-21T06:22:28.915Z,29.77
2023-04-21T06:24:55.796Z,30.53
2023-04-21T06:27:22.624Z,30.10
2023-04-21T06:29:54.744Z,29.40
2023-04-21T06:32:21.676Z,32.03
2023-04-21T06:34:48.469Z,29.87
2023-04-21T06:37:16.101Z,32.53
2023-04-21T06:39:42.950Z,31.53
2023-04-21T06:42:10.265Z,29.90
2023-04-21T06:44:38.183Z,33.53
2023-04-21T06:47:05.187Z,32.20
2023-04-21T06:49:34.053Z,31.43
2023-04-21T06:52:01.089Z,32.30
2023-04-21T06:54:27.966Z,35.73
2023-04-21T06:56:54.802Z,33.13
2023-04-21T06:59:22.128Z,32.97
2023-04-21T07:01:52.335Z,32.90
2023-04-21T07:04:19.991Z,32.30
2023-04-21T07:06:47.502Z,30.13
2023-04-21T07:09:14.416Z,31.10
2023-04-21T07:11:41.379Z,32.90
2023-04-21T07:14:11.253Z,30.43
2023-04-21T07:16:38.262Z,29.93
2023-04-21T07:19:05.270Z,30.93
2023-04-21T07:21:36.093Z,28.87
2023-04-21T07:24:03.837Z,30.00
2023-04-21T07:26:30.875Z,29.83
2023-04-21T07:28:58.600Z,27.97
2023-04-21T07:31:25.675Z,28.33
2023-04-21T07:33:52.762Z,28.53
2023-04-21T07:36:19.752Z,30.03
2023-04-21T07:38:46.777Z,28.90
2023-04-21T07:41:14.281Z,27.27
2023-04-21T07:43:41.195Z,27.70
2023-04-21T07:46:10.868Z,28.90
2023-04-21T07:48:37.752Z,28.50
2023-04-21T07:51:04.621Z,27.30
2023-04-21T07:53:31.597Z,27.40
2023-04-21T07:55:59.031Z,28.50
2023-04-21T07:58:26.343Z,29.20
2023-04-21T08:00:53.183Z,27.70
2023-04-21T08:03:22.244Z,27.60
2023-04-21T08:05:51.549Z,28.40
2023-04-21T08:08:20.512Z,26.97
2023-04-21T08:10:47.525Z,26.93
2023-04-21T08:13:14.941Z,26.70
2023-04-21T08:15:41.946Z,26.80
2023-04-21T08:18:09.685Z,26.80
2023-04-21T08:20:36.641Z,26.10
2023-04-21T08:23:03.830Z,27.03
2023-04-21T08:25:31.032Z,26.73
2023-04-21T08:27:57.937Z,26.73
2023-04-21T08:30:27.308Z,25.63
2023-04-21T08:32:54.371Z,26.00
2023-04-21T08:35:21.310Z,26.57
2023-04-21T08:37:49.083Z,24.87
2023-04-21T08:40:17.759Z,24.40
2023-04-21T08:42:45.913Z,24.23
2023-04-21T08:45:12.839Z,24.63
2023-04-21T08:47:41.959Z,24.33
2023-04-21T08:50:14.149Z,23.00
2023-04-21T08:52:41.101Z,25.70
2023-04-21T08:55:09.847Z,26.23
2023-04-21T08:57:36.697Z,26.10
2023-04-21T09:00:06.491Z,26.63
2023-04-21T09:02:59.648Z,26.17
2023-04-21T09:05:30.261Z,25.30
2023-04-21T09:08:09.683Z,26.07
2023-04-21T09:10:53.958Z,24.90
2023-04-21T09:13:30.128Z,25.80
2023-04-21T09:15:57.493Z,25.87
2023-04-21T09:18:27.327Z,25.30
2023-04-21T09:21:16.039Z,25.80
2023-04-21T09:23:43.662Z,25.87
2023-04-21T09:26:11.832Z,24.70
2023-04-21T09:28:42.492Z,27.43
2023-04-21T09:31:29.073Z,24.00
2023-04-21T09:34:01.106Z,25.67
2023-04-21T09:36:31.005Z,25.60
2023-04-21T09:39:30.132Z,24.73
2023-04-21T09:41:49.884Z,23.30
2023-04-21T09:44:18.111Z,24.80
2023-04-21T09:46:50.318Z,24.10
2023-04-21T09:49:18.023Z,23.40
2023-04-21T09:54:29.261Z,22.20
2023-04-21T09:56:59.845Z,25.87
2023-04-21T09:59:38.064Z,24.33
2023-04-21T10:02:07.168Z,24.03
2023-04-21T10:04:37.388Z,22.73
2023-04-21T10:07:05.298Z,23.03
2023-04-21T10:09:39.075Z,24.47
2023-04-21T10:12:09.182Z,23.83
2023-04-21T10:14:36.915Z,22.27
2023-04-21T10:17:10.085Z,24.40
2023-04-21T10:19:41.702Z,22.90
2023-04-21T10:22:10.211Z,23.03
2023-04-21T10:24:41.549Z,23.47
2023-04-21T10:27:13.162Z,23.57
2023-04-21T10:29:55.380Z,22.20
2023-04-21T10:32:40.260Z,22.07
2023-04-21T10:35:11.819Z,21.20
2023-04-21T10:37:40.793Z,23.30
2023-04-21T10:40:41.989Z,22.47
2023-04-21T10:43:46.490Z,22.83
2023-04-21T10:46:35.047Z,21.67
2023-04-21T10:49:31.833Z,21.83
2023-04-21T10:51:59.287Z,22.70
2023-04-21T10:54:26.149Z,23.97
2023-04-21T10:56:57.485Z,22.40
2023-04-21T10:59:25.574Z,22.40
2023-04-21T11:01:52.705Z,22.70
2023-04-21T11:04:22.453Z,24.17
2023-04-21T11:07:11.289Z,22.13
2023-04-21T11:09:39.938Z,21.63
2023-04-21T11:12:15.026Z,20.60
2023-04-21T11:14:44.559Z,20.27
2023-04-21T11:17:18.195Z,22.47
2023-04-21T11:19:56.840Z,20.53
2023-04-21T11:22:25.287Z,21.67
2023-04-21T11:24:55.740Z,25.30
2023-04-21T11:27:23.431Z,21.43
2023-04-21T11:29:51.081Z,24.07
2023-04-21T11:32:18.587Z,25.03
2023-04-21T11:34:45.855Z,23.10
2023-04-21T11:37:24.538Z,21.37
2023-04-21T11:40:00.097Z,23.17
2023-04-21T11:42:27.940Z,23.70
2023-04-21T11:44:57.165Z,21.57
2023-04-21T11:47:28.460Z,24.40
2023-04-21T11:50:02.260Z,22.90
2023-04-21T11:52:33.097Z,23.67
2023-04-21T11:55:20.384Z,22.47
2023-04-21T11:57:47.443Z,24.90
2023-04-21T12:00:15.511Z,23.87
2023-04-21T12:02:43.816Z,22.43
2023-04-21T12:05:13.366Z,21.30
2023-04-21T12:07:45.610Z,23.87
2023-04-21T12:10:13.874Z,21.73
2023-04-21T12:12:42.181Z,21.40
2023-04-21T12:15:11.390Z,21.13
2023-04-21T12:17:49.130Z,20.30
2023-04-21T12:20:17.543Z,21.33
2023-04-21T12:22:44.930Z,20.73
2023-04-21T12:25:12.032Z,21.80
2023-04-21T12:27:48.616Z,21.10
2023-04-21T12:30:16.199Z,19.23
2023-04-21T12:32:43.372Z,18.43
2023-04-21T12:35:10.422Z,18.40
2023-04-21T12:37:38.267Z,17.80
2023-04-21T12:40:06.034Z,18.00
2023-04-21T12:42:35.976Z,18.70
2023-04-21T12:45:05.395Z,19.07
2023-04-21T12:47:32.856Z,18.70
2023-04-21T12:50:00.240Z,18.17
2023-04-21T12:52:27.159Z,18.13
2023-04-21T12:54:54.231Z,19.33
2023-04-21T12:57:21.539Z,21.10
2023-04-21T12:59:48.761Z,20.03
2023-04-21T13:02:15.851Z,18.33
2023-04-21T13:04:42.894Z,17.30
2023-04-21T13:07:09.976Z,17.97
2023-04-21T13:09:37.194Z,17.50
2023-04-21T13:12:04.114Z,18.10
2023-04-21T13:14:31.356Z,19.03
2023-04-21T13:16:58.370Z,18.97
2023-04-21T13:19:25.759Z,18.77
2023-04-21T13:21:54.203Z,17.87
2023-04-21T13:24:21.845Z,18.30
2023-04-21T13:26:49.040Z,18.80
2023-04-21T13:29:16.526Z,16.93
2023-04-21T13:31:43.493Z,17.67
2023-04-21T13:34:10.946Z,18.37
2023-04-21T13:36:37.896Z,17.80
2023-04-21T13:39:05.890Z,18.90
2023-04-21T13:41:32.856Z,18.37
2023-04-21T13:43:59.729Z,19.70
2023-04-21T13:46:26.877Z,19.70
2023-04-21T13:48:54.471Z,18.47
2023-04-21T13:51:21.807Z,20.53
2023-04-21T13:53:49.338Z,18.90
2023-04-21T13:56:17.068Z,20.17
2023-04-21T13:58:44.585Z,20.10
2023-04-21T14:01:14.229Z,18.80
2023-04-21T14:03:41.524Z,19.77
2023-04-21T14:06:09.033Z,20.17
2023-04-21T14:08:36.145Z,18.87
2023-04-21T14:11:03.873Z,18.40
2023-04-21T14:16:01.089Z,18.97
2023-04-21T14:18:28.332Z,17.83
2023-04-21T14:20:55.196Z,17.00
2023-04-21T14:23:22.146Z,18.40
2023-04-21T14:25:49.049Z,19.47
2023-04-21T14:28:15.936Z,17.67
2023-04-21T14:30:43.641Z,18.67
2023-04-21T14:33:10.768Z,19.67
2023-04-21T14:35:38.034Z,19.10
2023-04-21T14:38:05.020Z,17.87
2023-04-21T14:40:31.970Z,18.87
2023-04-21T14:42:59.140Z,18.40
2023-04-21T14:45:26.256Z,18.90
2023-04-21T14:47:53.654Z,18.00
2023-04-21T14:50:21.006Z,18.33
2023-04-21T14:52:49.720Z,18.63
2023-04-21T14:55:17.362Z,19.70
2023-04-21T14:57:44.331Z,19.57
2023-04-21T15:00:12.903Z,17.47
2023-04-21T15:02:39.905Z,16.10
2023-04-21T15:05:08.922Z,15.03
2023-04-21T15:07:36.227Z,15.87
2023-04-21T15:10:03.650Z,14.07
2023-04-21T15:12:30.637Z,14.20
2023-04-21T15:14:57.734Z,15.00
2023-04-21T15:17:24.669Z,14.03
2023-04-21T15:19:51.593Z,14.67
2023-04-21T15:22:19.010Z,15.80
2023-04-21T15:24:46.413Z,14.53
2023-04-21T15:27:13.179Z,14.27
2023-04-21T15:29:40.393Z,13.17
2023-04-21T15:32:07.477Z,14.50
2023-04-21T15:34:34.300Z,13.60
2023-04-21T15:37:01.666Z,13.03
2023-04-21T15:39:28.510Z,14.13
2023-04-21T15:41:56.130Z,13.83
2023-04-21T15:44:22.923Z,13.70
2023-04-21T15:46:50.642Z,13.77
2023-04-21T15:49:17.565Z,13.97
2023-04-21T15:51:44.543Z,12.90
2023-04-21T15:54:11.494Z,13.10
2023-04-21T15:56:38.565Z,13.40
2023-04-21T15:59:05.530Z,13.17
2023-04-21T16:01:32.615Z,13.90
2023-04-21T16:03:59.701Z,14.70
2023-04-21T16:06:29.393Z,14.50
2023-04-21T16:08:56.774Z,15.27
2023-04-21T16:11:25.107Z,15.20
2023-04-21T16:13:52.454Z,15.13
2023-04-21T16:16:19.688Z,13.37
2023-04-21T16:18:46.636Z,12.90
2023-04-21T16:21:13.617Z,12.93
2023-04-21T16:23:41.063Z,12.50
2023-04-21T16:26:09.121Z,12.00
2023-04-21T16:28:36.231Z,12.67
2023-04-21T16:31:03.702Z,11.67
2023-04-21T16:33:30.821Z,12.77
2023-04-21T16:35:57.822Z,13.90
2023-04-21T16:38:24.815Z,14.07
2023-04-21T16:40:52.689Z,12.70
2023-04-21T16:43:19.490Z,13.30
2023-04-21T16:45:46.178Z,12.77
2023-04-21T16:48:13.063Z,12.93
2023-04-21T16:50:41.715Z,13.23
2023-04-21T16:53:08.825Z,12.30
2023-04-21T16:55:35.569Z,11.67
2023-04-21T16:58:02.424Z,13.70
2023-04-21T17:00:30.282Z,12.13
2023-04-21T17:02:57.563Z,12.80
2023-04-21T17:05:24.679Z,12.00
2023-04-21T17:07:51.467Z,12.63
2023-04-21T17:10:18.535Z,11.70
2023-04-21T17:12:46.093Z,15.40
2023-04-21T17:15:13.229Z,15.67
2023-04-21T17:17:42.884Z,11.83
2023-04-21T17:20:12.531Z,11.37
2023-04-21T17:22:40.089Z,12.23
2023-04-21T17:25:08.010Z,12.07
2023-04-21T17:27:36.454Z,11.17
2023-04-21T17:30:04.853Z,10.67
2023-04-21T17:32:33.627Z,10.27
2023-04-21T17:35:01.095Z,10.20
2023-04-21T17:37:29.124Z,10.70
2023-04-21T17:39:56.064Z,10.70
2023-04-21T17:42:22.779Z,9.57
2023-04-21T17:44:49.561Z,10.93
2023-04-21T17:47:16.612Z,10.27
2023-04-21T17:49:43.499Z,11.03
2023-04-21T17:52:10.104Z,7.83
2023-04-21T17:54:37.604Z,6.80
2023-04-21T17:57:04.532Z,7.03
2023-04-21T17:59:31.174Z,6.90
2023-04-21T18:01:58.958Z,6.43
2023-04-21T18:04:27.761Z,5.80
2023-04-21T18:06:54.509Z,6.30
2023-04-21T18:09:21.307Z,5.97
2023-04-21T18:11:48.033Z,4.83
2023-04-21T18:14:15.141Z,4.43
2023-04-21T18:16:41.828Z,4.37
2023-04-21T18:19:08.662Z,4.60
2023-04-21T18:21:35.403Z,4.00
2023-04-21T18:24:02.676Z,4.50
2023-04-21T18:26:29.631Z,4.67
2023-04-21T18:28:59.402Z,4.20
2023-04-21T18:31:28.497Z,3.80
2023-04-21T18:33:58.900Z,4.37
2023-04-21T18:36:25.609Z,4.30
2023-04-21T18:38:52.522Z,4.00
2023-04-21T18:41:19.609Z,4.43
2023-04-21T18:43:46.257Z,34.17
2023-04-21T18:46:13.186Z,84.07
2023-04-21T18:48:40.394Z,41.70
2023-04-21T18:51:07.022Z,13.17
2023-04-21T18:53:33.922Z,8.43
2023-04-21T18:56:00.601Z,15.23
2023-04-21T18:58:27.313Z,7.00
2023-04-21T19:00:55.081Z,7.93
2023-04-21T19:03:22.706Z,7.13
2023-04-21T19:05:49.525Z,7.17
2023-04-21T19:08:18.284Z,7.40
2023-04-21T19:10:50.589Z,9.40
2023-04-21T19:13:18.566Z,8.93
2023-04-21T19:15:45.890Z,8.83
2023-04-21T19:18:12.735Z,8.77
2023-04-21T19:20:39.522Z,7.50
2023-04-21T19:23:06.314Z,8.00
2023-04-21T19:25:35.655Z,8.17
2023-04-21T19:28:02.608Z,7.30
2023-04-21T19:30:29.880Z,5.07
2023-04-21T19:32:56.958Z,5.50
2023-04-21T19:35:24.067Z,4.93
2023-04-21T19:37:50.908Z,5.40
2023-04-21T19:40:17.629Z,4.80
2023-04-21T19:42:44.288Z,5.13
2023-04-21T19:45:11.168Z,5.93
2023-04-21T19:47:38.084Z,6.17
2023-04-21T19:50:05.301Z,6.67
2023-04-21T19:52:32.270Z,6.20
2023-04-21T19:54:59.128Z,6.07
2023-04-21T19:57:25.945Z,5.60
2023-04-21T19:59:52.653Z,5.43
2023-04-21T20:02:19.564Z,6.20
2023-04-21T20:04:47.369Z,6.77
2023-04-21T20:07:14.161Z,10.40
2023-04-21T20:09:41.337Z,5.17
2023-04-21T20:12:09.045Z,3.77
2023-04-21T20:14:35.781Z,4.50
2023-04-21T20:17:02.572Z,3.83
2023-04-21T20:19:31.946Z,3.83
2023-04-21T20:21:58.745Z,3.63
2023-04-21T20:24:25.429Z,3.10
2023-04-21T20:26:52.201Z,3.50
2023-04-21T20:29:19.636Z,4.40
2023-04-21T20:31:46.510Z,3.17
2023-04-21T20:34:13.269Z,3.23
2023-04-21T20:36:40.879Z,3.60
2023-04-21T20:39:07.608Z,3.23
2023-04-21T20:41:34.789Z,3.80
2023-04-21T20:44:01.877Z,3.40
2023-04-21T20:46:32.045Z,3.47
2023-04-21T20:48:59.027Z,2.83
2023-04-21T20:51:26.840Z,4.10
2023-04-21T20:53:53.562Z,3.20
2023-04-21T20:56:20.293Z,3.63
2023-04-21T20:58:47.885Z,3.53
2023-04-21T21:01:14.650Z,3.77
2023-04-21T21:03:41.712Z,3.17
2023-04-21T21:06:08.846Z,3.53
2023-04-21T21:08:35.601Z,3.93
2023-04-21T21:11:02.277Z,3.73
2023-04-21T21:13:28.883Z,2.90
2023-04-21T21:15:55.548Z,3.77
2023-04-21T21:18:22.345Z,4.07
2023-04-21T21:20:49.082Z,4.17
2023-04-21T21:23:15.838Z,4.10
2023-04-21T21:25:42.729Z,4.43
2023-04-21T21:28:09.379Z,4.33
2023-04-21T21:30:36.232Z,4.47
2023-04-21T21:33:02.975Z,3.97
2023-04-21T21:35:29.726Z,4.80
2023-04-21T21:37:56.547Z,4.20
2023-04-21T21:40:23.249Z,4.87
2023-04-21T21:42:49.866Z,5.00
2023-04-21T21:45:17.006Z,4.87
2023-04-21T21:47:45.606Z,4.97
2023-04-21T21:50:13.113Z,4.43
2023-04-21T21:52:39.849Z,4.70
2023-04-21T21:55:07.250Z,4.17
2023-04-21T21:57:34.286Z,5.33
2023-04-21T22:00:01.816Z,5.03
2023-04-21T22:02:29.154Z,4.40
2023-04-21T22:04:56.602Z,4.67
2023-04-21T22:07:24.941Z,4.97
2023-04-21T22:09:52.605Z,4.73
2023-04-21T22:12:19.476Z,4.60
2023-04-21T22:14:47.024Z,5.60
2023-04-21T22:17:14.410Z,4.87
2023-04-21T22:19:41.870Z,5.03
2023-04-21T22:22:08.610Z,5.13
2023-04-21T22:24:35.895Z,5.60
2023-04-21T22:27:02.658Z,5.43
2023-04-21T22:29:29.423Z,6.33
2023-04-21T22:31:56.218Z,5.80
2023-04-21T22:34:23.720Z,6.27
2023-04-21T22:36:52.126Z,6.20
2023-04-21T22:39:19.356Z,5.90
2023-04-21T22:41:46.178Z,5.97
2023-04-21T22:44:14.409Z,6.20
2023-04-21T22:46:41.781Z,6.50
2023-04-21T22:49:09.162Z,6.33
2023-04-21T22:51:36.286Z,6.10
2023-04-21T22:54:03.713Z,7.03
2023-04-21T22:56:31.312Z,6.67
2023-04-21T22:58:58.463Z,6.50
2023-04-21T23:01:25.380Z,6.93
2023-04-21T23:03:52.539Z,6.90
2023-04-21T23:06:19.312Z,8.00
2023-04-21T23:08:45.974Z,8.43
2023-04-21T23:11:13.007Z,8.10
2023-04-21T23:13:40.077Z,10.43
2023-04-21T23:16:06.994Z,9.30
2023-04-21T23:18:33.737Z,10.43
2023-04-21T23:21:00.938Z,11.20
2023-04-21T23:23:27.714Z,10.57
2023-04-21T23:25:54.478Z,10.07
2023-04-21T23:28:21.672Z,8.90
2023-04-21T23:30:48.420Z,10.13
2023-04-21T23:33:15.449Z,9.23
2023-04-21T23:35:42.671Z,9.77
2023-04-21T23:38:09.329Z,10.53
2023-04-21T23:40:36.077Z,10.50
2023-04-21T23:43:03.215Z,9.20
2023-04-21T23:45:29.915Z,9.57
2023-04-21T23:47:56.560Z,10.33
2023-04-21T23:50:23.573Z,10.93
2023-04-21T23:52:50.444Z,9.53
2023-04-21T23:55:17.299Z,10.10
2023-04-21T23:57:47.078Z,9.33
